Time;durP1;ratioP1;P1;durP2;ratioP2;P2;SDS_P1;SDS_P2;PMS_P1;PMS_P2;Temp;Humidity;BMP_temperature;BMP_pressure;BME280_temperature;BME280_humidity;BME280_pressure;Samples;Min_cycle;Max_cycle;Signal;HPM_P1;HPM_P2
2021/05/09 00:00:41;;;;;;;4.78;1.30;;;;;;;;;;5066418;28;20040;-42
2021/05/09 00:03:07;;;;;;;8.88;1.48;;;;;;;;;;5067286;28;20039;-42
2021/05/09 00:05:32;;;;;;;3.10;1.75;;;;;;;;;;5063631;28;20037;-41
2021/05/09 00:07:58;;;;;;;2.13;1.38;;;;;;;;;;5071430;28;20085;-42
2021/05/09 00:10:23;;;;;;;4.30;1.63;;;;;;;;;;5067092;28;20037;-42
2021/05/09 00:12:48;;;;;;;2.50;1.65;;;;;;;;;;5068634;28;20024;-41
2021/05/09 00:15:16;;;;;;;8.90;2.45;;;;;;;;;;5071011;28;20095;-42
2021/05/09 00:17:42;;;;;;;1.27;0.80;;;;;;;;;;5069005;28;20031;-42
2021/05/09 00:20:08;;;;;;;5.80;1.60;;;;;;;;;;5068510;28;20714;-43
2021/05/09 00:22:33;;;;;;;4.95;2.25;;;;;;;;;;5069263;28;20028;-42
2021/05/09 00:24:59;;;;;;;2.47;1.38;;;;;;;;;;5069113;28;20639;-44
2021/05/09 00:27:24;;;;;;;2.75;1.25;;;;;;;;;;5066859;28;20037;-42
2021/05/09 00:29:49;;;;;;;3.60;1.45;;;;;;;;;;5070824;28;20043;-42
2021/05/09 00:32:15;;;;;;;12.00;1.85;;;;;;;;;;5065582;28;20037;-42
2021/05/09 00:34:40;;;;;;;2.47;1.23;;;;;;;;;;5066214;28;20043;-42
2021/05/09 00:37:05;;;;;;;2.78;1.30;;;;;;;;;;5063431;28;20024;-42
2021/05/09 00:39:30;;;;;;;4.10;1.05;;;;;;;;;;5074169;28;20033;-42
2021/05/09 00:42:00;;;;;;;12.38;1.40;;;;;;;;;;5070969;28;20390;-41
2021/05/09 00:44:25;;;;;;;5.43;1.77;;;;;;;;;;5045534;28;20653;-42
2021/05/09 00:46:51;;;;;;;0.70;0.60;;;;;;;;;;5069930;28;20025;-42
2021/05/09 00:49:16;;;;;;;5.55;1.52;;;;;;;;;;5069135;28;20442;-42
2021/05/09 00:51:42;;;;;;;3.22;1.40;;;;;;;;;;5074084;28;20032;-43
2021/05/09 00:54:07;;;;;;;4.38;1.48;;;;;;;;;;5068090;28;20037;-42
2021/05/09 00:56:32;;;;;;;1.95;0.77;;;;;;;;;;5065551;28;20029;-42
2021/05/09 00:58:58;;;;;;;1.50;0.73;;;;;;;;;;5066009;28;20059;-42
2021/05/09 01:01:24;;;;;;;2.30;0.88;;;;;;;;;;5063783;28;20481;-42
2021/05/09 01:03:49;;;;;;;1.88;1.08;;;;;;;;;;5063829;28;20036;-43
2021/05/09 01:06:15;;;;;;;1.30;0.70;;;;;;;;;;5061225;28;20056;-41
2021/05/09 01:08:41;;;;;;;2.45;0.88;;;;;;;;;;5063412;28;20028;-43
2021/05/09 01:11:07;;;;;;;1.48;0.60;;;;;;;;;;5065324;28;20037;-42
2021/05/09 01:13:33;;;;;;;7.38;1.80;;;;;;;;;;5076986;28;20033;-42
2021/05/09 01:16:01;;;;;;;1.65;1.15;;;;;;;;;;5065097;28;20489;-42
2021/05/09 01:18:45;;;;;;;2.28;0.65;;;;;;;;;;5060948;28;20501;-43
2021/05/09 01:21:10;;;;;;;1.88;1.52;;;;;;;;;;5067761;28;20504;-42
2021/05/09 01:23:36;;;;;;;6.03;1.50;;;;;;;;;;5068164;28;20048;-42
2021/05/09 01:26:04;;;;;;;0.98;0.50;;;;;;;;;;5071677;28;20036;-41
2021/05/09 01:28:29;;;;;;;0.73;0.60;;;;;;;;;;5063808;28;20033;-33
2021/05/09 01:30:55;;;;;;;2.25;1.20;;;;;;;;;;5064893;28;20838;-34
2021/05/09 01:33:20;;;;;;;3.47;1.05;;;;;;;;;;5070353;28;20036;-33
2021/05/09 01:35:45;;;;;;;3.90;0.85;;;;;;;;;;5068231;28;20051;-34
2021/05/09 01:38:11;;;;;;;4.13;0.90;;;;;;;;;;5072415;28;20127;-34
2021/05/09 01:40:36;;;;;;;14.20;1.23;;;;;;;;;;5052534;28;20115;-33
2021/05/09 01:43:01;;;;;;;10.30;0.60;;;;;;;;;;5065558;28;20042;-34
2021/05/09 01:45:27;;;;;;;1.38;1.05;;;;;;;;;;5064384;28;20049;-34
2021/05/09 01:47:52;;;;;;;2.42;1.67;;;;;;;;;;5068898;28;20028;-34
2021/05/09 01:50:18;;;;;;;1.92;1.10;;;;;;;;;;5071947;28;20094;-34
2021/05/09 01:52:43;;;;;;;2.45;0.95;;;;;;;;;;5065233;28;20131;-34
2021/05/09 01:55:10;;;;;;;3.92;1.23;;;;;;;;;;5060348;28;20630;-34
2021/05/09 01:57:35;;;;;;;3.30;1.67;;;;;;;;;;5062686;28;20029;-34
2021/05/09 02:00:01;;;;;;;1.63;0.65;;;;;;;;;;5067561;28;20120;-34
2021/05/09 02:02:26;;;;;;;3.45;0.63;;;;;;;;;;5068723;28;20067;-34
2021/05/09 02:04:52;;;;;;;1.83;1.08;;;;;;;;;;5064442;28;20626;-34
2021/05/09 02:07:18;;;;;;;8.07;0.98;;;;;;;;;;5069040;28;20059;-34
2021/05/09 02:09:43;;;;;;;3.53;1.30;;;;;;;;;;5064112;28;20033;-34
2021/05/09 02:12:08;;;;;;;10.05;1.08;;;;;;;;;;5065994;28;20445;-34
2021/05/09 02:14:34;;;;;;;2.67;1.10;;;;;;;;;;5070011;28;20547;-34
2021/05/09 02:16:59;;;;;;;10.38;1.65;;;;;;;;;;5056764;28;20087;-34
2021/05/09 02:19:24;;;;;;;0.98;0.60;;;;;;;;;;5061092;28;20055;-33
2021/05/09 02:21:50;;;;;;;0.98;0.85;;;;;;;;;;5046651;28;20029;-34
2021/05/09 02:24:15;;;;;;;0.88;0.73;;;;;;;;;;5061726;28;20124;-33
2021/05/09 02:26:40;;;;;;;4.30;1.02;;;;;;;;;;5061285;28;20048;-33
2021/05/09 02:29:06;;;;;;;2.20;1.17;;;;;;;;;;5066139;28;20534;-33
2021/05/09 02:31:31;;;;;;;2.70;0.85;;;;;;;;;;5051847;28;20028;-33
2021/05/09 02:33:56;;;;;;;1.80;0.88;;;;;;;;;;5064889;28;20485;-33
2021/05/09 02:36:22;;;;;;;1.98;0.85;;;;;;;;;;5065987;28;20549;-33
2021/05/09 02:38:47;;;;;;;3.35;1.42;;;;;;;;;;5065631;28;20048;-33
2021/05/09 02:41:12;;;;;;;4.25;0.93;;;;;;;;;;5045782;28;20467;-33
2021/05/09 02:43:38;;;;;;;2.85;1.17;;;;;;;;;;5063396;28;20076;-33
2021/05/09 02:46:03;;;;;;;3.88;0.82;;;;;;;;;;5068941;28;20036;-33
2021/05/09 02:48:30;;;;;;;2.17;0.95;;;;;;;;;;5069609;28;20124;-33
2021/05/09 02:50:55;;;;;;;2.17;1.33;;;;;;;;;;5061356;28;20044;-33
2021/05/09 02:53:20;;;;;;;1.52;1.00;;;;;;;;;;5049189;28;20028;-33
2021/05/09 02:55:46;;;;;;;1.85;0.77;;;;;;;;;;5069875;28;20032;-33
2021/05/09 02:58:11;;;;;;;2.05;0.98;;;;;;;;;;5065701;28;20033;-33
2021/05/09 03:00:36;;;;;;;4.55;1.77;;;;;;;;;;5047844;28;20068;-33
2021/05/09 03:03:02;;;;;;;9.63;1.95;;;;;;;;;;5048730;28;20025;-33
2021/05/09 03:05:27;;;;;;;3.95;1.17;;;;;;;;;;5067748;28;20071;-34
2021/05/09 03:07:53;;;;;;;4.00;1.08;;;;;;;;;;5067367;28;20531;-34
2021/05/09 03:10:18;;;;;;;1.38;0.77;;;;;;;;;;5042761;28;20048;-34
2021/05/09 03:12:43;;;;;;;3.88;1.48;;;;;;;;;;5063034;28;20032;-34
2021/05/09 03:15:09;;;;;;;3.38;1.80;;;;;;;;;;5063790;28;20062;-34
2021/05/09 03:17:34;;;;;;;2.95;1.92;;;;;;;;;;5060485;28;20498;-33
2021/05/09 03:20:00;;;;;;;3.08;1.00;;;;;;;;;;5044227;28;20079;-33
2021/05/09 03:22:26;;;;;;;1.50;1.02;;;;;;;;;;5062304;28;20028;-33
2021/05/09 03:24:51;;;;;;;1.17;0.93;;;;;;;;;;5061821;28;20555;-33
2021/05/09 03:27:16;;;;;;;5.07;1.25;;;;;;;;;;5057416;28;20111;-33
2021/05/09 03:29:42;;;;;;;1.77;0.93;;;;;;;;;;5049684;28;20075;-33
2021/05/09 03:32:07;;;;;;;2.35;1.08;;;;;;;;;;5062177;28;20484;-33
2021/05/09 03:34:32;;;;;;;3.78;1.38;;;;;;;;;;5060075;28;20071;-33
2021/05/09 03:36:58;;;;;;;3.30;1.95;;;;;;;;;;5061033;28;20028;-33
2021/05/09 03:39:23;;;;;;;3.47;1.75;;;;;;;;;;5063933;28;20060;-33
2021/05/09 03:41:48;;;;;;;10.50;1.88;;;;;;;;;;5045336;28;20029;-33
2021/05/09 03:44:14;;;;;;;8.43;1.45;;;;;;;;;;5060304;28;20130;-33
2021/05/09 03:46:39;;;;;;;2.85;1.30;;;;;;;;;;5064759;28;20488;-33
2021/05/09 03:49:04;;;;;;;3.28;1.63;;;;;;;;;;5065700;28;20040;-33
2021/05/09 03:51:30;;;;;;;3.38;1.25;;;;;;;;;;5061925;28;20040;-33
2021/05/09 03:53:55;;;;;;;9.88;1.73;;;;;;;;;;5060109;28;20052;-33
2021/05/09 03:56:20;;;;;;;2.35;1.10;;;;;;;;;;5065539;28;20037;-33
2021/05/09 03:58:46;;;;;;;2.65;1.45;;;;;;;;;;5061756;28;20036;-33
2021/05/09 04:01:11;;;;;;;3.22;1.05;;;;;;;;;;5061257;28;20446;-33
2021/05/09 04:03:36;;;;;;;3.08;1.00;;;;;;;;;;5061078;28;20126;-34
2021/05/09 04:06:01;;;;;;;2.90;1.35;;;;;;;;;;5062182;28;20033;-33
2021/05/09 04:08:27;;;;;;;4.57;2.03;;;;;;;;;;5058504;28;20037;-33
2021/05/09 04:10:55;;;;;;;4.20;1.73;;;;;;;;;;5059819;28;20488;-33
2021/05/09 04:13:21;;;;;;;2.03;1.75;;;;;;;;;;5057493;28;20090;-33
2021/05/09 04:15:47;;;;;;;3.85;1.98;;;;;;;;;;5059570;28;20026;-33
2021/05/09 04:18:12;;;;;;;2.50;1.30;;;;;;;;;;5060159;28;20169;-33
2021/05/09 04:20:38;;;;;;;9.50;2.63;;;;;;;;;;5072762;28;20040;-33
2021/05/09 04:23:10;;;;;;;14.00;2.40;;;;;;;;;;5064357;28;20025;-33
2021/05/09 04:25:36;;;;;;;4.53;1.98;;;;;;;;;;5062714;28;20116;-33
2021/05/09 04:28:01;;;;;;;4.03;1.77;;;;;;;;;;5064422;28;20210;-33
2021/05/09 04:30:27;;;;;;;3.65;1.83;;;;;;;;;;5063099;28;20044;-33
2021/05/09 04:32:59;;;;;;;4.13;2.25;;;;;;;;;;5066970;28;20045;-33
2021/05/09 04:35:24;;;;;;;7.10;1.60;;;;;;;;;;5065580;28;20036;-33
2021/05/09 04:37:49;;;;;;;6.43;1.92;;;;;;;;;;5067873;28;20403;-34
2021/05/09 04:40:15;;;;;;;4.50;2.15;;;;;;;;;;5063003;28;20131;-34
2021/05/09 04:42:40;;;;;;;12.55;2.30;;;;;;;;;;5044637;28;20392;-33
2021/05/09 04:45:06;;;;;;;6.10;1.75;;;;;;;;;;5064568;28;20167;-33
2021/05/09 04:47:31;;;;;;;3.85;2.25;;;;;;;;;;5048223;28;20032;-32
2021/05/09 04:49:56;;;;;;;6.70;2.28;;;;;;;;;;5060182;28;20040;-32
2021/05/09 04:52:22;;;;;;;3.60;1.73;;;;;;;;;;5046839;28;20033;-32
2021/05/09 04:54:47;;;;;;;2.13;1.25;;;;;;;;;;5029649;28;20032;-33
2021/05/09 04:57:12;;;;;;;15.57;2.75;;;;;;;;;;5061664;28;20440;-33
2021/05/09 04:59:37;;;;;;;3.08;2.15;;;;;;;;;;5046302;28;20123;-34
2021/05/09 05:02:03;;;;;;;1.83;1.25;;;;;;;;;;5062746;28;20063;-34
2021/05/09 05:04:28;;;;;;;3.63;2.17;;;;;;;;;;5060406;28;20116;-36
2021/05/09 05:06:53;;;;;;;6.47;1.05;;;;;;;;;;5063532;28;20119;-34
2021/05/09 05:09:19;;;;;;;4.95;1.70;;;;;;;;;;5062305;28;20040;-34
2021/05/09 05:11:44;;;;;;;3.45;1.55;;;;;;;;;;5058970;28;20481;-34
2021/05/09 05:14:09;;;;;;;2.17;1.48;;;;;;;;;;5068641;28;20032;-34
2021/05/09 05:16:34;;;;;;;5.00;2.15;;;;;;;;;;5064203;28;20028;-34
2021/05/09 05:19:00;;;;;;;4.20;1.95;;;;;;;;;;5071711;28;20487;-34
2021/05/09 05:21:25;;;;;;;7.43;2.05;;;;;;;;;;5072374;28;20078;-34
2021/05/09 05:23:50;;;;;;;3.95;2.13;;;;;;;;;;5064899;28;20076;-34
2021/05/09 05:26:16;;;;;;;11.35;2.40;;;;;;;;;;5061498;28;20043;-34
2021/05/09 05:28:41;;;;;;;7.63;2.17;;;;;;;;;;5070348;28;20083;-34
2021/05/09 05:31:06;;;;;;;7.55;3.47;;;;;;;;;;5043864;28;20032;-34
2021/05/09 05:33:33;;;;;;;4.05;2.55;;;;;;;;;;5033408;28;20039;-34
2021/05/09 05:35:58;;;;;;;4.28;2.38;;;;;;;;;;5062988;28;20132;-34
2021/05/09 05:38:24;;;;;;;9.30;2.13;;;;;;;;;;5062501;28;20104;-34
2021/05/09 05:40:53;;;;;;;6.00;2.90;;;;;;;;;;5068712;28;20044;-34
2021/05/09 05:43:19;;;;;;;4.93;1.98;;;;;;;;;;5065472;28;20111;-34
2021/05/09 05:45:44;;;;;;;3.25;2.22;;;;;;;;;;5061279;28;20136;-34
2021/05/09 05:48:09;;;;;;;6.07;2.25;;;;;;;;;;5067947;28;20094;-34
2021/05/09 05:50:35;;;;;;;6.13;2.85;;;;;;;;;;5063966;28;20103;-34
2021/05/09 05:53:00;;;;;;;4.75;2.47;;;;;;;;;;5061789;28;20025;-34
2021/05/09 05:55:25;;;;;;;4.25;1.50;;;;;;;;;;5063808;28;20477;-34
2021/05/09 05:57:50;;;;;;;3.60;2.33;;;;;;;;;;5065898;28;20036;-34
2021/05/09 06:00:16;;;;;;;4.88;1.58;;;;;;;;;;5058933;28;20043;-34
2021/05/09 06:02:41;;;;;;;5.72;2.30;;;;;;;;;;5063347;28;20024;-34
2021/05/09 06:05:07;;;;;;;7.65;2.22;;;;;;;;;;5064309;28;20050;-34
2021/05/09 06:07:32;;;;;;;3.22;1.83;;;;;;;;;;5060749;28;20448;-34
2021/05/09 06:09:58;;;;;;;5.25;2.45;;;;;;;;;;5063576;28;20155;-34
2021/05/09 06:12:23;;;;;;;6.50;1.98;;;;;;;;;;5067614;28;20051;-34
2021/05/09 06:14:48;;;;;;;7.15;1.92;;;;;;;;;;5063536;28;20040;-34
2021/05/09 06:17:14;;;;;;;10.57;3.03;;;;;;;;;;5065880;28;20534;-34
2021/05/09 06:19:39;;;;;;;7.47;1.80;;;;;;;;;;5066949;28;20037;-34
2021/05/09 06:22:04;;;;;;;9.15;1.95;;;;;;;;;;5065024;28;20020;-34
2021/05/09 06:24:29;;;;;;;8.20;1.75;;;;;;;;;;5064890;28;20651;-34
2021/05/09 06:26:55;;;;;;;5.57;1.63;;;;;;;;;;5061589;28;20086;-34
2021/05/09 06:29:20;;;;;;;6.22;1.58;;;;;;;;;;5067694;28;20400;-34
2021/05/09 06:31:45;;;;;;;3.47;1.80;;;;;;;;;;5063271;28;20032;-34
2021/05/09 06:34:11;;;;;;;4.25;2.10;;;;;;;;;;5063777;28;20500;-34
2021/05/09 06:36:36;;;;;;;5.10;2.00;;;;;;;;;;5068206;28;20029;-34
2021/05/09 06:39:05;;;;;;;9.18;2.58;;;;;;;;;;5069827;28;20499;-34
2021/05/09 06:41:32;;;;;;;6.80;1.60;;;;;;;;;;5067561;28;20079;-34
2021/05/09 06:43:59;;;;;;;12.98;2.78;;;;;;;;;;5061870;28;20056;-34
2021/05/09 06:46:25;;;;;;;5.45;2.20;;;;;;;;;;5069737;28;20036;-36
2021/05/09 06:48:50;;;;;;;25.17;2.53;;;;;;;;;;5067426;28;20036;-34
2021/05/09 06:51:16;;;;;;;11.32;3.05;;;;;;;;;;5064345;28;20032;-34
2021/05/09 06:53:43;;;;;;;1.17;0.75;;;;;;;;;;5067395;28;20087;-34
2021/05/09 06:56:09;;;;;;;6.30;2.70;;;;;;;;;;5062335;28;20029;-34
2021/05/09 06:58:34;;;;;;;5.72;2.15;;;;;;;;;;5062593;28;20081;-34
2021/05/09 07:00:59;;;;;;;3.10;1.38;;;;;;;;;;5065740;28;20072;-34
2021/05/09 07:03:25;;;;;;;16.73;2.80;;;;;;;;;;5067746;28;20037;-34
2021/05/09 07:05:50;;;;;;;7.75;2.30;;;;;;;;;;5061003;28;20032;-34
2021/05/09 07:08:16;;;;;;;9.40;2.42;;;;;;;;;;5061200;28;20072;-34
2021/05/09 07:10:41;;;;;;;11.27;2.17;;;;;;;;;;5062818;28;20505;-34
2021/05/09 07:13:06;;;;;;;8.05;2.42;;;;;;;;;;5066262;28;20033;-34
2021/05/09 07:15:37;;;;;;;7.45;2.05;;;;;;;;;;5058748;28;20036;-34
2021/05/09 07:18:09;;;;;;;12.80;2.85;;;;;;;;;;5060959;28;20494;-33
2021/05/09 07:20:37;;;;;;;6.60;2.13;;;;;;;;;;5064492;28;20445;-34
2021/05/09 07:23:02;;;;;;;8.05;1.98;;;;;;;;;;5061722;28;20473;-34
2021/05/09 07:25:27;;;;;;;4.63;2.15;;;;;;;;;;5064962;28;20102;-34
2021/05/09 07:27:53;;;;;;;13.02;2.72;;;;;;;;;;5065331;28;20035;-34
2021/05/09 07:30:18;;;;;;;7.90;1.70;;;;;;;;;;5065267;28;20032;-34
2021/05/09 07:32:44;;;;;;;8.23;2.63;;;;;;;;;;5061026;28;20433;-34
2021/05/09 07:35:09;;;;;;;14.25;2.22;;;;;;;;;;5062446;28;20397;-34
2021/05/09 07:37:34;;;;;;;6.65;3.38;;;;;;;;;;5068697;28;20396;-34
2021/05/09 07:40:00;;;;;;;4.20;1.85;;;;;;;;;;5067755;28;20036;-34
2021/05/09 07:42:25;;;;;;;3.55;2.38;;;;;;;;;;5062064;28;20063;-34
2021/05/09 07:44:54;;;;;;;7.80;1.73;;;;;;;;;;5065502;28;20029;-34
2021/05/09 07:47:20;;;;;;;21.45;3.45;;;;;;;;;;5062695;28;20101;-34
2021/05/09 07:49:45;;;;;;;13.10;2.47;;;;;;;;;;5037159;28;20032;-34
2021/05/09 07:52:10;;;;;;;7.32;2.00;;;;;;;;;;5058298;28;20101;-34
2021/05/09 07:54:36;;;;;;;4.20;2.05;;;;;;;;;;5064856;28;20036;-34
2021/05/09 07:57:01;;;;;;;8.52;2.70;;;;;;;;;;5062543;28;20047;-34
2021/05/09 07:59:26;;;;;;;7.00;2.15;;;;;;;;;;5065395;28;20031;-34
2021/05/09 08:01:52;;;;;;;9.98;2.10;;;;;;;;;;5071867;28;20704;-36
2021/05/09 08:04:17;;;;;;;6.30;3.83;;;;;;;;;;5065949;28;20124;-34
2021/05/09 08:06:43;;;;;;;10.32;1.92;;;;;;;;;;5060417;28;20031;-34
2021/05/09 08:09:08;;;;;;;19.45;2.08;;;;;;;;;;5068983;28;20091;-34
2021/05/09 08:11:34;;;;;;;11.82;2.65;;;;;;;;;;5069048;28;20569;-34
2021/05/09 08:13:59;;;;;;;4.70;2.05;;;;;;;;;;5072816;28;20312;-34
2021/05/09 08:16:25;;;;;;;2.78;1.85;;;;;;;;;;5060382;28;20489;-35
2021/05/09 08:18:51;;;;;;;6.65;2.28;;;;;;;;;;5064262;28;20078;-34
2021/05/09 08:21:16;;;;;;;11.82;3.13;;;;;;;;;;5046148;28;20040;-34
2021/05/09 08:23:44;;;;;;;14.57;3.33;;;;;;;;;;5059896;28;20036;-34
2021/05/09 08:26:10;;;;;;;16.85;2.85;;;;;;;;;;5066839;28;20134;-34
2021/05/09 08:28:35;;;;;;;8.20;2.63;;;;;;;;;;5059143;28;20044;-34
2021/05/09 08:31:00;;;;;;;11.15;2.38;;;;;;;;;;5063035;28;20515;-35
2021/05/09 08:33:26;;;;;;;7.80;2.13;;;;;;;;;;5063496;28;20123;-34
2021/05/09 08:35:51;;;;;;;10.73;3.03;;;;;;;;;;5066393;28;20033;-34
2021/05/09 08:38:16;;;;;;;11.05;2.47;;;;;;;;;;5066732;28;20064;-34
2021/05/09 08:40:42;;;;;;;9.93;2.85;;;;;;;;;;5061865;28;20032;-34
2021/05/09 08:43:07;;;;;;;11.88;2.63;;;;;;;;;;5059359;28;20132;-35
2021/05/09 08:45:33;;;;;;;8.45;3.53;;;;;;;;;;5057740;28;20041;-39
2021/05/09 08:47:59;;;;;;;12.65;3.55;;;;;;;;;;5065388;28;20119;-34
2021/05/09 08:50:26;;;;;;;9.30;2.58;;;;;;;;;;5061254;28;20032;-35
2021/05/09 08:52:52;;;;;;;5.88;2.83;;;;;;;;;;5063694;28;20044;-34
2021/05/09 08:55:23;;;;;;;4.10;2.15;;;;;;;;;;5071319;28;20036;-35
2021/05/09 08:57:48;;;;;;;4.22;2.33;;;;;;;;;;5065464;28;20044;-34
2021/05/09 09:00:15;;;;;;;7.07;2.15;;;;;;;;;;5067463;28;20081;-35
2021/05/09 09:02:40;;;;;;;5.70;2.70;;;;;;;;;;5067528;28;20036;-35
2021/05/09 09:05:06;;;;;;;8.02;3.10;;;;;;;;;;5061001;28;20040;-34
2021/05/09 09:07:45;;;;;;;38.97;8.85;;;;;;;;;;5064156;28;20083;-34
2021/05/09 09:10:11;;;;;;;6.45;3.60;;;;;;;;;;5063940;28;20040;-35
2021/05/09 09:12:37;;;;;;;4.47;2.60;;;;;;;;;;5063630;28;20127;-34
2021/05/09 09:15:03;;;;;;;5.43;2.50;;;;;;;;;;5061186;28;20043;-34
2021/05/09 09:17:28;;;;;;;9.07;2.58;;;;;;;;;;5066308;28;20036;-35
2021/05/09 09:20:28;;;;;;;19.95;4.07;;;;;;;;;;5063038;28;20048;-34
2021/05/09 09:22:56;;;;;;;15.02;3.28;;;;;;;;;;4994642;28;20045;-44
2021/05/09 09:25:24;;;;;;;13.07;4.57;;;;;;;;;;5048122;28;20090;-40
2021/05/09 09:27:50;;;;;;;8.98;4.40;;;;;;;;;;5058669;28;20573;-44
2021/05/09 09:30:17;;;;;;;8.27;2.70;;;;;;;;;;5057376;28;20119;-48
2021/05/09 09:33:02;;;;;;;8.60;2.05;;;;;;;;;;5063237;28;20124;-45
2021/05/09 09:35:28;;;;;;;13.02;2.53;;;;;;;;;;5062727;28;20082;-46
2021/05/09 09:37:53;;;;;;;12.02;2.38;;;;;;;;;;5064801;28;20037;-45
2021/05/09 09:40:18;;;;;;;11.23;4.18;;;;;;;;;;5061356;28;20036;-44
2021/05/09 09:42:45;;;;;;;12.60;5.47;;;;;;;;;;5059338;28;20033;-47
2021/05/09 09:45:22;;;;;;;8.07;4.28;;;;;;;;;;5062992;28;20048;-46
2021/05/09 09:47:52;;;;;;;7.25;3.30;;;;;;;;;;5062580;28;20032;-41
2021/05/09 09:50:36;;;;;;;6.88;3.42;;;;;;;;;;5057238;28;20029;-37
2021/05/09 09:53:22;;;;;;;12.02;3.13;;;;;;;;;;5066525;28;20040;-36
2021/05/09 09:56:03;;;;;;;7.63;3.42;;;;;;;;;;5042925;28;20048;-36
2021/05/09 09:58:47;;;;;;;16.42;3.55;;;;;;;;;;5063188;28;20056;-36
2021/05/09 10:01:14;;;;;;;19.45;4.25;;;;;;;;;;5060765;28;20501;-37
2021/05/09 10:03:39;;;;;;;4.80;2.25;;;;;;;;;;5061238;28;20156;-36
2021/05/09 10:06:05;;;;;;;8.25;2.28;;;;;;;;;;5061086;28;20755;-36
2021/05/09 10:08:32;;;;;;;11.23;4.00;;;;;;;;;;5059943;28;20041;-36
2021/05/09 10:10:59;;;;;;;10.82;3.40;;;;;;;;;;5066280;28;20036;-37
2021/05/09 10:13:25;;;;;;;12.65;4.93;;;;;;;;;;5061685;28;20033;-36
2021/05/09 10:15:53;;;;;;;12.02;3.30;;;;;;;;;;5061078;28;20045;-36
2021/05/09 10:18:19;;;;;;;10.45;3.45;;;;;;;;;;5059803;28;20123;-37
2021/05/09 10:20:45;;;;;;;4.50;2.25;;;;;;;;;;5064409;28;20064;-35
2021/05/09 10:23:11;;;;;;;10.57;2.80;;;;;;;;;;5054387;28;20101;-36
2021/05/09 10:25:43;;;;;;;3.33;1.77;;;;;;;;;;5040244;28;20040;-37
2021/05/09 10:28:09;;;;;;;11.75;1.58;;;;;;;;;;5040229;28;20037;-37
2021/05/09 10:30:45;;;;;;;3.83;2.03;;;;;;;;;;5040332;28;20088;-37
2021/05/09 10:33:10;;;;;;;7.05;2.63;;;;;;;;;;5038455;28;20052;-37
2021/05/09 10:35:36;;;;;;;9.38;2.17;;;;;;;;;;5040248;28;20108;-37
2021/05/09 10:38:02;;;;;;;5.40;2.33;;;;;;;;;;5036803;28;20037;-36
2021/05/09 10:40:31;;;;;;;4.93;3.45;;;;;;;;;;5042399;28;20155;-37
2021/05/09 10:42:59;;;;;;;14.32;2.95;;;;;;;;;;5036160;28;20056;-37
2021/05/09 10:45:50;;;;;;;4.05;1.85;;;;;;;;;;5038760;28;20033;-37
2021/05/09 10:48:22;;;;;;;5.53;1.85;;;;;;;;;;5035956;28;20045;-37
2021/05/09 10:50:49;;;;;;;3.70;2.17;;;;;;;;;;5038707;28;20067;-37
2021/05/09 10:53:29;;;;;;;11.52;3.90;;;;;;;;;;5037768;28;20041;-36
2021/05/09 10:55:55;;;;;;;8.40;3.50;;;;;;;;;;5041134;28;20043;-37
2021/05/09 10:58:40;;;;;;;3.58;2.03;;;;;;;;;;5038888;28;20033;-37
2021/05/09 11:01:08;;;;;;;12.40;4.13;;;;;;;;;;5036148;28;20029;-37
2021/05/09 11:03:37;;;;;;;2.00;1.20;;;;;;;;;;5036912;28;20038;-37
2021/05/09 11:06:06;;;;;;;21.45;3.42;;;;;;;;;;5039560;28;20048;-37
2021/05/09 11:08:52;;;;;;;5.82;2.20;;;;;;;;;;5040828;28;20061;-37
2021/05/09 11:11:29;;;;;;;4.57;2.20;;;;;;;;;;5038893;28;20048;-37
2021/05/09 11:16:26;;;;;;;4.40;2.13;;;;;;;;;;5037884;28;20033;-38
2021/05/09 11:18:58;;;;;;;12.65;1.90;;;;;;;;;;5042627;28;20043;-37
2021/05/09 11:21:24;;;;;;;9.05;2.53;;;;;;;;;;5040736;28;20041;-37
2021/05/09 11:23:51;;;;;;;9.43;3.15;;;;;;;;;;5046369;28;20048;-37
2021/05/09 11:26:26;;;;;;;6.93;3.08;;;;;;;;;;5060610;28;20163;-37
2021/05/09 11:29:09;;;;;;;5.53;2.63;;;;;;;;;;5065645;28;20112;-37
2021/05/09 11:31:35;;;;;;;4.10;1.45;;;;;;;;;;5062632;28;20103;-37
2021/05/09 11:34:01;;;;;;;5.35;2.65;;;;;;;;;;5062732;28;20045;-37
2021/05/09 11:36:30;;;;;;;5.20;2.47;;;;;;;;;;5065686;28;20667;-37
2021/05/09 11:39:05;;;;;;;6.88;2.83;;;;;;;;;;5060803;28;20037;-37
2021/05/09 11:41:30;;;;;;;10.13;2.40;;;;;;;;;;5065637;28;20036;-37
2021/05/09 11:44:02;;;;;;;13.20;3.58;;;;;;;;;;5069047;28;20106;-37
2021/05/09 11:46:34;;;;;;;11.52;4.30;;;;;;;;;;5063411;28;20040;-37
2021/05/09 11:49:18;;;;;;;9.02;3.03;;;;;;;;;;5063636;28;20132;-36
2021/05/09 11:51:50;;;;;;;18.95;4.57;;;;;;;;;;5062240;28;20057;-37
2021/05/09 11:54:16;;;;;;;10.27;4.13;;;;;;;;;;5061284;28;20516;-38
2021/05/09 11:57:07;;;;;;;7.05;2.00;;;;;;;;;;5063387;28;20058;-37
2021/05/09 11:59:40;;;;;;;3.28;1.33;;;;;;;;;;5061816;28;20039;-37
2021/05/09 12:02:21;;;;;;;12.23;4.82;;;;;;;;;;5066345;28;20029;-37
2021/05/09 12:04:52;;;;;;;6.00;3.60;;;;;;;;;;5063516;28;20040;-37
2021/05/09 12:07:19;;;;;;;5.55;2.85;;;;;;;;;;5062988;28;20061;-36
2021/05/09 12:09:58;;;;;;;7.75;2.65;;;;;;;;;;5061792;28;20045;-37
2021/05/09 12:12:24;;;;;;;8.57;1.52;;;;;;;;;;5060167;28;20060;-37
2021/05/09 12:14:52;;;;;;;23.73;5.18;;;;;;;;;;5061611;28;20083;-37
2021/05/09 12:17:21;;;;;;;6.97;2.45;;;;;;;;;;5065887;28;20722;-37
2021/05/09 12:19:47;;;;;;;12.45;4.20;;;;;;;;;;5063754;28;20037;-36
2021/05/09 12:22:12;;;;;;;11.43;5.13;;;;;;;;;;5055988;28;20189;-37
2021/05/09 12:24:52;;;;;;;8.80;3.60;;;;;;;;;;5061340;28;20275;-36
2021/05/09 12:27:17;;;;;;;5.88;2.22;;;;;;;;;;5058374;28;20040;-37
2021/05/09 12:29:52;;;;;;;5.53;1.95;;;;;;;;;;5059248;28;20420;-37
2021/05/09 12:32:25;;;;;;;6.18;2.88;;;;;;;;;;5058281;28;20041;-37
2021/05/09 12:35:00;;;;;;;8.05;3.00;;;;;;;;;;5059389;28;20049;-37
2021/05/09 12:37:29;;;;;;;8.30;3.50;;;;;;;;;;5064903;28;20060;-37
2021/05/09 12:40:13;;;;;;;9.63;3.83;;;;;;;;;;5062368;28;20036;-37
2021/05/09 12:42:50;;;;;;;21.13;4.93;;;;;;;;;;5061285;28;20414;-37
2021/05/09 12:45:16;;;;;;;6.53;2.20;;;;;;;;;;5056622;28;20048;-37
2021/05/09 12:47:41;;;;;;;2.42;1.75;;;;;;;;;;5058773;28;20036;-37
2021/05/09 12:50:06;;;;;;;7.05;3.60;;;;;;;;;;5061298;28;20036;-37
2021/05/09 12:52:52;;;;;;;5.78;3.28;;;;;;;;;;5064711;28;20064;-38
2021/05/09 12:55:24;;;;;;;10.10;2.92;;;;;;;;;;5062243;28;20635;-37
2021/05/09 12:58:06;;;;;;;7.20;2.28;;;;;;;;;;5063639;28;20094;-37
2021/05/09 13:00:32;;;;;;;6.93;2.70;;;;;;;;;;5065024;28;20033;-36
2021/05/09 13:02:57;;;;;;;11.15;2.75;;;;;;;;;;5066922;28;20087;-37
2021/05/09 13:05:24;;;;;;;4.07;3.00;;;;;;;;;;5061643;28;20033;-37
2021/05/09 13:07:49;;;;;;;11.38;3.78;;;;;;;;;;5059060;28;20563;-37
2021/05/09 13:10:18;;;;;;;6.75;2.33;;;;;;;;;;5061500;28;20599;-37
2021/05/09 13:12:46;;;;;;;6.53;4.20;;;;;;;;;;5061081;28;20044;-37
2021/05/09 13:15:12;;;;;;;10.27;4.00;;;;;;;;;;5059909;28;20513;-37
2021/05/09 13:17:37;;;;;;;7.32;4.03;;;;;;;;;;5061239;28;20043;-36
2021/05/09 13:20:03;;;;;;;15.75;5.32;;;;;;;;;;5060855;28;20493;-37
2021/05/09 13:22:28;;;;;;;18.63;3.88;;;;;;;;;;5060909;28;20041;-36
2021/05/09 13:24:57;;;;;;;8.80;3.75;;;;;;;;;;5065596;28;20068;-38
2021/05/09 13:27:22;;;;;;;17.67;5.20;;;;;;;;;;5063675;28;20041;-36
2021/05/09 13:29:47;;;;;;;14.48;4.28;;;;;;;;;;5065477;28;20059;-36
2021/05/09 13:32:13;;;;;;;7.95;4.25;;;;;;;;;;5062865;28;20425;-36
2021/05/09 13:34:38;;;;;;;11.93;2.75;;;;;;;;;;5056519;28;20126;-36
2021/05/09 13:37:04;;;;;;;11.65;4.07;;;;;;;;;;5061486;28;20390;-39
2021/05/09 13:39:29;;;;;;;23.00;5.32;;;;;;;;;;5062709;28;20115;-36
2021/05/09 13:41:54;;;;;;;18.75;3.78;;;;;;;;;;5068420;28;20037;-38
2021/05/09 13:44:20;;;;;;;8.27;5.28;;;;;;;;;;5060459;28;20725;-38
2021/05/09 13:46:51;;;;;;;8.27;5.32;;;;;;;;;;5064178;28;20020;-41
2021/05/09 13:49:17;;;;;;;14.25;4.50;;;;;;;;;;5067297;28;20131;-37
2021/05/09 13:51:43;;;;;;;5.10;3.13;;;;;;;;;;5069782;28;20122;-39
2021/05/09 13:54:08;;;;;;;11.38;3.85;;;;;;;;;;5064018;28;20059;-37
2021/05/09 13:56:33;;;;;;;19.83;4.18;;;;;;;;;;5062952;28;20040;-38
2021/05/09 13:58:59;;;;;;;6.25;3.10;;;;;;;;;;5065973;28;20083;-36
2021/05/09 14:01:24;;;;;;;9.43;2.95;;;;;;;;;;5068062;28;20064;-37
2021/05/09 14:03:49;;;;;;;14.25;6.95;;;;;;;;;;5068247;28;20076;-38
2021/05/09 14:06:15;;;;;;;21.98;5.85;;;;;;;;;;5063515;28;20374;-37
2021/05/09 14:08:44;;;;;;;21.60;5.03;;;;;;;;;;5064928;28;20035;-37
2021/05/09 14:11:10;;;;;;;12.45;6.20;;;;;;;;;;5060573;28;20035;-37
2021/05/09 14:13:35;;;;;;;10.57;3.65;;;;;;;;;;5063956;28;20028;-38
2021/05/09 14:16:01;;;;;;;22.27;7.28;;;;;;;;;;5062128;28;20450;-37
2021/05/09 14:18:26;;;;;;;26.83;7.03;;;;;;;;;;5060563;28;20036;-37
2021/05/09 14:20:52;;;;;;;15.68;5.57;;;;;;;;;;5060744;28;20390;-37
2021/05/09 14:23:17;;;;;;;17.73;4.40;;;;;;;;;;5060318;28;20079;-36
2021/05/09 14:25:43;;;;;;;15.60;4.25;;;;;;;;;;5064722;28;20097;-36
2021/05/09 14:28:08;;;;;;;9.02;3.92;;;;;;;;;;5060573;28;20118;-37
2021/05/09 14:30:33;;;;;;;12.57;3.95;;;;;;;;;;5063110;28;20584;-36
2021/05/09 14:32:59;;;;;;;13.73;4.70;;;;;;;;;;5062700;28;20561;-37
2021/05/09 14:35:24;;;;;;;7.10;2.95;;;;;;;;;;5049071;28;20056;-36
2021/05/09 14:37:50;;;;;;;14.27;3.45;;;;;;;;;;5058671;28;20039;-38
2021/05/09 14:40:16;;;;;;;9.07;4.53;;;;;;;;;;5060345;28;20033;-39
2021/05/09 14:42:41;;;;;;;7.93;4.43;;;;;;;;;;5061031;28;20032;-37